W03 weather

Wilson Industrial Air Center Airport
Wilson, North Carolina, United States

Public forecast

Using degrees Fahrenheit for public forecast. Weather courtesy of forecast.io.

METAR (pilot weather report)

Closest report is Rocky Mount Wilson Regional Airport, 6.4 nm (11.9 km) NE. Retrieved 2019/06/19 08:53 UTC (20 minutes ago):

KRWI 190853Z AUTO 00000KT 10SM CLR 23/22 A2987 RMK AO2 SLP111 T02280222 56018

TAF (pilot weather forecast)

Closest forecast is Rocky Mount Wilson Regional Airport, 6.4 nm (11.9 km) NE. Retrieved 2019/06/19 06:45 UTC (2 hours ago):

TAF KRWI 190540Z 1906/2006 VRB02KT P6SM BKN025 BKN250 FM190800 18003KT P6SM BKN015 TEMPO 1908/1912 SCT015 FM191400 23009KT P6SM BKN035 PROB30 1918/1922 23012G20KT P6SM -TSRA BKN035CB